Time;durP1;ratioP1;P1;durP2;ratioP2;P2;SDS_P1;SDS_P2;PMS_P1;PMS_P2;Temp;Humidity;BMP_temperature;BMP_pressure;BME280_temperature;BME280_humidity;BME280_pressure;Samples;Min_cycle;Max_cycle;Signal;HPM_P1;HPM_P2
2022/11/04 00:02:24;;;;;;;;;;;;;;;12.12;88.40;99504.41;7364014;19;19926;-59
2022/11/04 00:04:51;;;;;;;;;;;;;;;12.09;87.27;99512.72;7360334;19;19923;-58
2022/11/04 00:09:55;;;;;;;;;;;;;;;11.96;89.44;99514.25;7385235;19;20499;-58
2022/11/04 00:12:25;;;;;;;;;;;;;;;11.94;90.32;99524.16;7385570;19;19951;-57
2022/11/04 00:14:52;;;;;;;;;;;;;;;11.93;90.58;99532.28;7359009;19;19923;-56
2022/11/04 00:17:22;;;;;;;;;;;;;;;11.89;90.74;99533.66;7364458;19;20596;-56
2022/11/04 00:30:17;;;;;;;;;;;;;;;11.83;90.31;99543.19;7358995;19;19921;-59
2022/11/04 00:35:21;;;;;;;;;;;;;;;11.80;91.29;99553.28;7361696;19;19918;-56
2022/11/04 00:37:48;;;;;;;;;;;;;;;11.77;91.20;99551.84;7361183;19;19918;-57
2022/11/04 00:40:15;;;;;;;;;;;;;;;11.76;91.94;99552.84;7362755;19;19934;-57
2022/11/04 00:42:43;;;;;;;;;;;;;;;11.78;92.31;99555.31;7359537;19;20001;-58
2022/11/04 00:45:10;;;;;;;;;;;;;;;11.76;92.37;99550.22;7358041;19;19924;-58
2022/11/04 00:47:37;;;;;;;;;;;;;;;11.74;92.72;99551.41;7362328;19;19930;-58
2022/11/04 00:50:04;;;;;;;;;;;;;;;11.73;92.51;99570.88;7363531;19;19922;-56
2022/11/04 00:52:31;;;;;;;;;;;;;;;11.71;92.75;99563.13;7362785;19;20419;-55
2022/11/04 00:54:58;;;;;;;;;;;;;;;11.72;92.90;99571.84;7360020;19;19930;-57
2022/11/04 00:57:25;;;;;;;;;;;;;;;11.70;93.03;99579.94;7358105;19;20470;-56
2022/11/04 00:59:52;;;;;;;;;;;;;;;11.69;93.48;99580.94;7359076;19;19929;-55
2022/11/04 01:02:19;;;;;;;;;;;;;;;11.66;93.96;99581.31;7361581;19;20299;-57
2022/11/04 01:04:46;;;;;;;;;;;;;;;11.65;93.96;99581.50;7360047;19;19965;-55
2022/11/04 01:07:13;;;;;;;;;;;;;;;11.64;94.30;99583.31;7359717;19;19978;-54
2022/11/04 01:09:40;;;;;;;;;;;;;;;11.65;94.87;99590.22;7384742;19;19919;-57
2022/11/04 01:12:07;;;;;;;;;;;;;;;11.67;94.52;99597.94;7385098;19;19979;-58
2022/11/04 01:14:34;;;;;;;;;;;;;;;11.66;94.83;99588.41;7358782;19;19968;-56
2022/11/04 01:17:01;;;;;;;;;;;;;;;11.69;95.40;99593.28;7361430;19;19950;-58
2022/11/04 01:19:28;;;;;;;;;;;;;;;11.69;94.94;99598.56;7361702;19;19937;-54
2022/11/04 01:21:55;;;;;;;;;;;;;;;11.70;94.69;99603.63;7361450;19;19998;-57
2022/11/04 01:24:22;;;;;;;;;;;;;;;11.68;94.09;99607.50;7362283;19;20034;-58
2022/11/04 01:26:49;;;;;;;;;;;;;;;11.63;94.22;99607.25;7357635;19;19926;-55
2022/11/04 01:29:16;;;;;;;;;;;;;;;11.61;94.13;99611.88;7356670;19;20268;-56
2022/11/04 01:31:43;;;;;;;;;;;;;;;11.58;94.91;99621.78;7361602;19;19943;-55
2022/11/04 01:34:10;;;;;;;;;;;;;;;11.59;95.07;99612.88;7360046;19;19971;-57
2022/11/04 01:36:37;;;;;;;;;;;;;;;11.55;94.54;99619.53;7360089;19;20404;-59
2022/11/04 01:39:04;;;;;;;;;;;;;;;11.55;95.41;99626.63;7358471;19;20596;-57
2022/11/04 01:41:32;;;;;;;;;;;;;;;11.55;94.83;99626.63;7360975;19;19948;-58
2022/11/04 01:44:19;;;;;;;;;;;;;;;11.53;95.17;99634.69;7356728;19;19923;-59
2022/11/04 01:46:49;;;;;;;;;;;;;;;11.53;95.48;99637.31;7359291;19;19978;-56
2022/11/04 01:49:16;;;;;;;;;;;;;;;11.53;95.39;99647.88;7359133;19;19923;-54
2022/11/04 01:51:44;;;;;;;;;;;;;;;11.53;94.98;99649.69;7357853;19;19935;-58
2022/11/04 01:54:11;;;;;;;;;;;;;;;11.52;94.89;99656.78;7360006;19;19955;-55
2022/11/04 01:56:39;;;;;;;;;;;;;;;11.49;94.90;99649.25;7359238;19;19929;-59
2022/11/04 01:59:10;;;;;;;;;;;;;;;11.47;95.51;99666.25;7357978;19;19930;-58
2022/11/04 02:01:37;;;;;;;;;;;;;;;11.46;95.40;99657.53;7359496;19;19919;-58
2022/11/04 02:06:40;;;;;;;;;;;;;;;11.42;95.14;99669.47;7360412;19;20387;-59
2022/11/04 02:09:07;;;;;;;;;;;;;;;11.41;95.10;99673.09;7358202;19;19956;-57
2022/11/04 02:14:33;;;;;;;;;;;;;;;11.43;95.79;99680.78;7359527;19;19914;-58
2022/11/04 02:17:06;;;;;;;;;;;;;;;11.42;95.80;99680.00;7370223;19;20012;-59
2022/11/04 02:19:43;;;;;;;;;;;;;;;11.41;95.33;99688.88;7374825;19;19919;-58
2022/11/04 02:22:10;;;;;;;;;;;;;;;11.40;95.06;99697.78;7372859;19;19982;-55
2022/11/04 02:24:46;;;;;;;;;;;;;;;11.37;94.99;99703.44;7374933;19;19927;-59
2022/11/04 02:27:17;;;;;;;;;;;;;;;11.35;94.77;99713.34;7371538;19;21519;-58
2022/11/04 02:29:54;;;;;;;;;;;;;;;11.33;95.12;99712.69;7368123;19;20719;-59
2022/11/04 02:32:22;;;;;;;;;;;;;;;11.32;95.27;99712.91;7373638;19;20359;-57
2022/11/04 02:34:59;;;;;;;;;;;;;;;11.29;95.17;99727.22;7370109;19;19922;-58
2022/11/04 02:37:32;;;;;;;;;;;;;;;11.28;94.76;99735.31;7373341;19;20638;-59
2022/11/04 02:40:06;;;;;;;;;;;;;;;11.32;95.08;99731.31;7371081;19;20325;-56
2022/11/04 02:42:40;;;;;;;;;;;;;;;11.29;94.04;99742.22;7371693;19;20477;-58
2022/11/04 02:45:08;;;;;;;;;;;;;;;11.23;93.96;99746.41;7368867;19;19923;-59
2022/11/04 02:47:37;;;;;;;;;;;;;;;11.19;93.71;99745.13;7372738;19;19922;-58
2022/11/04 02:50:09;;;;;;;;;;;;;;;11.18;93.04;99758.47;7370927;19;19978;-56
2022/11/04 02:52:37;;;;;;;;;;;;;;;11.15;93.35;99759.66;7370444;19;19930;-58
2022/11/04 02:55:09;;;;;;;;;;;;;;;11.16;92.95;99771.84;7372746;19;20002;-58
2022/11/04 02:57:38;;;;;;;;;;;;;;;11.11;92.12;99780.28;7371318;19;19922;-58
2022/11/04 03:00:06;;;;;;;;;;;;;;;11.08;92.12;99790.34;7369937;19;19930;-58
2022/11/04 03:02:36;;;;;;;;;;;;;;;11.03;91.92;99790.91;7370265;19;20312;-57
2022/11/04 03:05:04;;;;;;;;;;;;;;;10.99;92.15;99805.41;7371075;19;19915;-58
2022/11/04 03:07:34;;;;;;;;;;;;;;;10.97;92.41;99804.78;7371856;19;19919;-56
2022/11/04 03:10:06;;;;;;;;;;;;;;;10.98;92.79;99811.69;7368493;19;20002;-57
2022/11/04 03:12:38;;;;;;;;;;;;;;;10.97;93.07;99811.88;7367141;19;20336;-58
2022/11/04 03:15:08;;;;;;;;;;;;;;;10.98;92.02;99816.94;7370184;19;20281;-57
2022/11/04 03:17:39;;;;;;;;;;;;;;;10.98;92.18;99818.75;7370291;19;20002;-59
2022/11/04 03:20:09;;;;;;;;;;;;;;;10.99;91.88;99826.47;7364138;19;19919;-55
2022/11/04 03:22:36;;;;;;;;;;;;;;;11.00;91.91;99832.56;7367820;19;19915;-57
2022/11/04 03:25:04;;;;;;;;;;;;;;;10.99;92.21;99833.56;7367314;19;19943;-57
2022/11/04 03:27:31;;;;;;;;;;;;;;;11.00;92.26;99840.47;7357276;19;19926;-57
2022/11/04 03:30:01;;;;;;;;;;;;;;;11.00;91.91;99838.66;7356678;19;20638;-58
2022/11/04 03:32:31;;;;;;;;;;;;;;;11.04;92.25;99841.72;7361548;19;19923;-57
2022/11/04 03:34:58;;;;;;;;;;;;;;;11.01;91.26;99850.81;7362712;19;19922;-55
2022/11/04 03:37:25;;;;;;;;;;;;;;;11.00;92.08;99841.28;7366550;19;20574;-58
2022/11/04 03:39:52;;;;;;;;;;;;;;;11.05;91.07;99844.19;7364661;19;19982;-57
2022/11/04 03:42:21;;;;;;;;;;;;;;;11.03;91.01;99850.63;7363748;19;19994;-58
2022/11/04 03:44:49;;;;;;;;;;;;;;;11.05;92.46;99848.63;7363687;19;19990;-57
2022/11/04 03:47:17;;;;;;;;;;;;;;;11.05;92.57;99848.63;7369154;19;20002;-56
2022/11/04 03:49:45;;;;;;;;;;;;;;;11.05;91.78;99844.19;7363130;19;20346;-55
2022/11/04 03:52:12;;;;;;;;;;;;;;;11.03;91.85;99855.88;7366727;19;19919;-55
2022/11/04 03:54:39;;;;;;;;;;;;;;;11.03;91.92;99851.44;7364815;19;20289;-55
2022/11/04 03:57:15;;;;;;;;;;;;;;;11.03;92.26;99864.59;7360255;19;19926;-56
2022/11/04 03:59:52;;;;;;;;;;;;;;;11.04;92.33;99857.53;7363583;19;19974;-57
2022/11/04 04:02:25;;;;;;;;;;;;;;;11.02;91.32;99865.59;7364702;19;19910;-59
2022/11/04 04:04:58;;;;;;;;;;;;;;;10.99;92.02;99860.69;7362908;19;19918;-56
2022/11/04 04:07:30;;;;;;;;;;;;;;;10.98;92.03;99879.28;7363033;19;19946;-58
2022/11/04 04:10:37;;;;;;;;;;;;;;;10.96;92.53;99870.78;7361113;19;19914;-58
2022/11/04 04:12:55;;;;;;;;;;;;;;;10.99;92.25;99878.28;7361337;19;20534;-55
2022/11/04 04:15:25;;;;;;;;;;;;;;;11.01;91.47;99884.22;7361473;19;19935;-58
2022/11/04 04:17:55;;;;;;;;;;;;;;;10.96;92.06;99897.91;7363864;19;19918;-57
2022/11/04 04:20:24;;;;;;;;;;;;;;;10.97;92.08;99902.16;7362960;19;19947;-57
2022/11/04 04:22:53;;;;;;;;;;;;;;;10.96;92.39;99905.00;7364903;19;20932;-58
2022/11/04 04:28:00;;;;;;;;;;;;;;;10.88;92.26;99911.13;7361473;19;19932;-56
2022/11/04 04:30:28;;;;;;;;;;;;;;;10.86;92.74;99921.03;7358223;19;20009;-58
2022/11/04 04:32:57;;;;;;;;;;;;;;;10.86;92.95;99922.84;7360472;19;20496;-55
2022/11/04 04:45:57;;;;;;;;;;;;;;;10.80;92.92;99953.31;7362106;19;20536;-56
2022/11/04 04:48:24;;;;;;;;;;;;;;;10.75;93.43;99960.91;7359800;19;19938;-57
2022/11/04 04:50:55;;;;;;;;;;;;;;;10.73;93.47;99968.97;7363254;19;20045;-58
2022/11/04 04:53:22;;;;;;;;;;;;;;;10.72;93.64;99980.47;7361504;19;19914;-57
2022/11/04 04:55:49;;;;;;;;;;;;;;;10.72;93.22;99964.69;7361256;19;19921;-57
2022/11/04 04:58:16;;;;;;;;;;;;;;;10.72;92.38;99969.13;7359496;19;20172;-58
2022/11/04 05:00:43;;;;;;;;;;;;;;;10.72;92.54;99996.25;7362945;19;19998;-58
2022/11/04 05:03:10;;;;;;;;;;;;;;;10.73;91.93;99999.72;7362739;19;19956;-59
2022/11/04 05:05:38;;;;;;;;;;;;;;;10.69;92.42;100001.88;7358195;19;19929;-58
2022/11/04 05:08:05;;;;;;;;;;;;;;;10.67;92.32;100017.00;7361957;19;19933;-56
2022/11/04 05:10:33;;;;;;;;;;;;;;;10.64;92.65;100021.81;7360985;19;19933;-58
2022/11/04 05:15:37;;;;;;;;;;;;;;;10.59;92.85;100032.84;7359060;19;19925;-59
2022/11/04 05:18:04;;;;;;;;;;;;;;;10.56;92.87;100030.56;7359734;19;20285;-58
2022/11/04 05:20:33;;;;;;;;;;;;;;;10.55;93.18;100051.78;7359225;19;19918;-57
2022/11/04 05:23:00;;;;;;;;;;;;;;;10.53;92.96;100048.50;7362274;19;19923;-58
2022/11/04 05:25:27;;;;;;;;;;;;;;;10.52;93.26;100062.63;7361582;19;19923;-58
2022/11/04 05:27:57;;;;;;;;;;;;;;;10.48;93.24;100064.78;7359292;19;19915;-56
2022/11/04 05:30:24;;;;;;;;;;;;;;;10.45;93.09;100073.03;7355612;19;20402;-58
2022/11/04 05:32:51;;;;;;;;;;;;;;;10.45;93.55;100067.78;7362698;19;19927;-59
2022/11/04 05:35:18;;;;;;;;;;;;;;;10.42;92.81;100083.06;7360521;19;20565;-59
2022/11/04 05:37:45;;;;;;;;;;;;;;;10.39;93.27;100081.59;7359308;19;20054;-57
2022/11/04 05:40:12;;;;;;;;;;;;;;;10.37;93.96;100091.47;7361257;19;19973;-59
2022/11/04 05:42:39;;;;;;;;;;;;;;;10.39;93.29;100097.38;7359794;19;19933;-56
2022/11/04 05:45:07;;;;;;;;;;;;;;;10.39;91.96;100107.91;7357733;19;19998;-56
2022/11/04 05:47:33;;;;;;;;;;;;;;;10.37;92.00;100114.28;7358173;19;19930;-58
2022/11/04 05:50:00;;;;;;;;;;;;;;;10.33;92.43;100126.97;7358268;19;19965;-59
2022/11/04 05:52:27;;;;;;;;;;;;;;;10.33;92.18;100134.03;7360839;19;19926;-58
2022/11/04 05:54:54;;;;;;;;;;;;;;;10.31;92.14;100136.03;7360677;19;19930;-58
2022/11/04 05:57:21;;;;;;;;;;;;;;;10.25;92.39;100137.53;7359054;19;19930;-58
2022/11/04 05:59:48;;;;;;;;;;;;;;;10.21;92.82;100144.91;7359388;19;19923;-58
2022/11/04 06:02:15;;;;;;;;;;;;;;;10.17;92.41;100153.28;7360513;19;20293;-58
2022/11/04 06:04:44;;;;;;;;;;;;;;;10.13;92.02;100155.41;7357444;19;20239;-55
2022/11/04 06:07:12;;;;;;;;;;;;;;;10.07;92.07;100158.69;7359656;19;19926;-56
2022/11/04 06:09:39;;;;;;;;;;;;;;;10.00;92.36;100170.06;7359121;19;20007;-59
2022/11/04 06:12:08;;;;;;;;;;;;;;;9.97;92.61;100181.69;7358482;19;19926;-60
2022/11/04 06:14:35;;;;;;;;;;;;;;;9.94;92.24;100173.34;7358459;19;19923;-58
2022/11/04 06:17:02;;;;;;;;;;;;;;;9.92;92.21;100173.50;7360735;19;20598;-56
2022/11/04 06:19:29;;;;;;;;;;;;;;;9.94;92.53;100181.22;7359028;19;19922;-56
2022/11/04 06:21:56;;;;;;;;;;;;;;;9.91;91.68;100192.03;7359238;19;19919;-58
2022/11/04 06:24:23;;;;;;;;;;;;;;;9.86;91.61;100197.78;7360928;19;21607;-56
2022/11/04 06:26:50;;;;;;;;;;;;;;;9.88;91.08;100206.34;7357832;19;19926;-54
2022/11/04 06:29:17;;;;;;;;;;;;;;;9.87;90.94;100215.19;7358472;19;19918;-58
2022/11/04 06:31:44;;;;;;;;;;;;;;;9.86;90.97;100229.31;7359509;19;20492;-59
2022/11/04 06:34:11;;;;;;;;;;;;;;;9.84;90.85;100237.38;7360532;19;20576;-56
2022/11/04 06:36:38;;;;;;;;;;;;;;;9.83;91.27;100237.53;7359657;19;19930;-56
2022/11/04 06:39:05;;;;;;;;;;;;;;;9.76;90.89;100252.28;7361506;19;19925;-57
2022/11/04 06:41:32;;;;;;;;;;;;;;;9.74;91.27;100267.41;7358182;19;19933;-57
2022/11/04 06:43:59;;;;;;;;;;;;;;;9.71;91.09;100273.78;7359488;19;19951;-58
2022/11/04 06:46:27;;;;;;;;;;;;;;;9.67;91.18;100274.28;7361033;19;19930;-58
2022/11/04 06:48:55;;;;;;;;;;;;;;;9.64;91.81;100283.31;7357478;19;19927;-55
2022/11/04 06:51:23;;;;;;;;;;;;;;;9.62;91.87;100285.28;7359581;19;20857;-55
2022/11/04 06:53:50;;;;;;;;;;;;;;;9.61;92.36;100294.13;7360105;19;19918;-58
2022/11/04 06:56:16;;;;;;;;;;;;;;;9.59;92.35;100296.13;7358652;19;19975;-59
2022/11/04 06:58:46;;;;;;;;;;;;;;;9.59;92.25;100308.41;7358407;19;19947;-58
2022/11/04 07:01:14;;;;;;;;;;;;;;;9.60;92.19;100305.59;7355911;19;20396;-60
2022/11/04 07:03:48;;;;;;;;;;;;;;;9.65;91.47;100313.84;7364273;19;20253;-58
2022/11/04 07:06:15;;;;;;;;;;;;;;;9.65;91.35;100324.34;7361339;19;19991;-57
2022/11/04 07:08:42;;;;;;;;;;;;;;;9.61;91.29;100330.06;7363238;19;19925;-59
2022/11/04 07:11:09;;;;;;;;;;;;;;;9.60;91.60;100350.25;7363351;19;20295;-58
2022/11/04 07:13:36;;;;;;;;;;;;;;;9.57;91.87;100355.84;7362851;19;19923;-60
2022/11/04 07:16:04;;;;;;;;;;;;;;;9.59;91.85;100369.66;7365701;19;19930;-58
2022/11/04 07:18:31;;;;;;;;;;;;;;;9.61;91.56;100379.97;7366066;19;20552;-59
2022/11/04 07:20:58;;;;;;;;;;;;;;;9.63;91.08;100385.91;7363437;19;19961;-57
2022/11/04 07:23:29;;;;;;;;;;;;;;;9.66;91.10;100394.28;7362338;19;19951;-61
2022/11/04 07:26:00;;;;;;;;;;;;;;;9.63;90.70;100399.88;7364758;19;19930;-63
2022/11/04 07:28:27;;;;;;;;;;;;;;;9.63;90.17;100409.53;7359941;19;19918;-60
2022/11/04 07:30:55;;;;;;;;;;;;;;;9.61;90.71;100416.75;7360814;19;20383;-56
2022/11/04 07:33:22;;;;;;;;;;;;;;;9.62;91.02;100411.34;7341216;19;19952;-55
2022/11/04 07:35:50;;;;;;;;;;;;;;;9.61;91.24;100412.31;7347915;19;19950;-59
2022/11/04 07:38:22;;;;;;;;;;;;;;;9.65;90.97;100423.34;7360722;19;19925;-57
2022/11/04 07:40:49;;;;;;;;;;;;;;;9.68;90.63;100438.78;7361806;19;19914;-58
2022/11/04 07:43:16;;;;;;;;;;;;;;;9.66;90.00;100438.13;7361061;19;20065;-55
2022/11/04 07:45:43;;;;;;;;;;;;;;;9.65;90.33;100453.03;7360955;19;19926;-58
2022/11/04 07:48:10;;;;;;;;;;;;;;;9.66;89.93;100459.13;7363266;19;19926;-56
2022/11/04 07:50:38;;;;;;;;;;;;;;;9.67;90.37;100460.78;7360848;19;19967;-58
2022/11/04 07:53:06;;;;;;;;;;;;;;;9.67;90.21;100468.66;7361198;19;19950;-60
2022/11/04 07:55:35;;;;;;;;;;;;;;;9.70;90.37;100473.63;7361385;19;19972;-57
2022/11/04 07:58:09;;;;;;;;;;;;;;;9.63;89.76;100476.03;7352655;19;19937;-57
2022/11/04 08:00:36;;;;;;;;;;;;;;;9.62;90.17;100481.44;7358763;19;20501;-59
2022/11/04 08:03:02;;;;;;;;;;;;;;;9.65;90.19;100495.06;7365216;19;20551;-54
2022/11/04 08:05:29;;;;;;;;;;;;;;;9.68;89.76;100501.84;7360976;19;19922;-58
2022/11/04 08:08:01;;;;;;;;;;;;;;;9.70;89.97;100505.94;7355587;19;19939;-59
2022/11/04 08:10:28;;;;;;;;;;;;;;;9.73;89.67;100516.16;7360227;19;19923;-59
2022/11/04 08:12:55;;;;;;;;;;;;;;;9.75;89.48;100519.44;7356702;19;20284;-56
2022/11/04 08:15:21;;;;;;;;;;;;;;;9.78;89.71;100519.13;7360892;19;19960;-59
2022/11/04 08:17:58;;;;;;;;;;;;;;;9.77;88.97;100524.53;7356925;19;19930;-57
2022/11/04 08:20:27;;;;;;;;;;;;;;;9.75;89.21;100531.78;7361802;19;20542;-57
2022/11/04 08:22:54;;;;;;;;;;;;;;;9.81;89.36;100536.38;7362202;19;19927;-58
2022/11/04 08:25:22;;;;;;;;;;;;;;;9.85;88.84;100535.91;7362540;19;19914;-59
2022/11/04 08:27:53;;;;;;;;;;;;;;;9.87;88.75;100541.03;7359064;19;19934;-57
2022/11/04 08:30:26;;;;;;;;;;;;;;;9.82;88.61;100544.13;7357266;19;19927;-60
2022/11/04 08:32:53;;;;;;;;;;;;;;;9.87;88.91;100548.91;7363805;19;19933;-59
2022/11/04 08:35:19;;;;;;;;;;;;;;;9.88;88.77;100556.66;7362800;19;20301;-59
2022/11/04 08:37:56;;;;;;;;;;;;;;;9.96;89.01;100562.91;7360767;19;19930;-57
2022/11/04 08:40:23;;;;;;;;;;;;;;;10.02;89.27;100572.81;7361792;19;20043;-55
2022/11/04 08:42:50;;;;;;;;;;;;;;;10.08;88.66;100575.66;7359781;19;20465;-59
2022/11/04 08:45:17;;;;;;;;;;;;;;;10.11;88.04;100585.84;7359163;19;20290;-59
2022/11/04 08:47:49;;;;;;;;;;;;;;;10.16;88.05;100583.59;7362700;19;19922;-57
2022/11/04 08:50:16;;;;;;;;;;;;;;;10.21;87.50;100588.38;7359722;19;19926;-58
2022/11/04 08:52:42;;;;;;;;;;;;;;;10.25;88.90;100589.75;7363293;19;19930;-55
2022/11/04 08:55:09;;;;;;;;;;;;;;;10.39;91.87;100601.47;7361877;19;19979;-56
2022/11/04 08:57:46;;;;;;;;;;;;;;;10.46;90.33;100603.31;7360664;19;19926;-58
2022/11/04 09:00:13;;;;;;;;;;;;;;;10.49;87.39;100608.25;7361046;19;19927;-58
2022/11/04 09:02:39;;;;;;;;;;;;;;;10.52;86.07;100622.88;7366362;19;19919;-58
2022/11/04 09:05:06;;;;;;;;;;;;;;;10.53;86.26;100621.91;7362866;19;19931;-57
2022/11/04 09:07:35;;;;;;;;;;;;;;;10.56;86.05;100629.50;7367268;19;19938;-56
2022/11/04 09:10:02;;;;;;;;;;;;;;;10.57;85.54;100631.13;7363221;19;19940;-59
2022/11/04 09:12:28;;;;;;;;;;;;;;;10.56;85.00;100635.59;7364536;19;19919;-59
2022/11/04 09:14:55;;;;;;;;;;;;;;;10.51;85.54;100642.31;7356967;19;19934;-55
2022/11/04 09:17:22;;;;;;;;;;;;;;;10.53;85.79;100640.31;7362427;19;20027;-58
2022/11/04 09:19:49;;;;;;;;;;;;;;;10.60;86.43;100636.94;7363894;19;19928;-57
2022/11/04 09:22:15;;;;;;;;;;;;;;;10.63;86.02;100638.41;7363385;19;19952;-59
2022/11/04 09:24:43;;;;;;;;;;;;;;;10.69;85.47;100637.78;7362558;19;19918;-57
2022/11/04 09:27:10;;;;;;;;;;;;;;;10.75;85.28;100642.41;7361426;19;19919;-58
2022/11/04 09:29:37;;;;;;;;;;;;;;;10.77;84.04;100640.44;7359685;19;19926;-59
2022/11/04 09:32:04;;;;;;;;;;;;;;;10.83;84.76;100655.59;7361824;19;19964;-57
2022/11/04 09:34:31;;;;;;;;;;;;;;;10.89;84.57;100654.13;7360892;19;19955;-58
2022/11/04 09:36:58;;;;;;;;;;;;;;;10.95;84.41;100667.50;7357787;19;19936;-57
2022/11/04 09:39:24;;;;;;;;;;;;;;;10.99;83.72;100668.00;7361965;19;19938;-57
2022/11/04 09:42:10;;;;;;;;;;;;;;;11.02;84.03;100668.47;7358066;19;19922;-59
2022/11/04 09:44:43;;;;;;;;;;;;;;;11.06;83.72;100669.84;7360385;19;20559;-61
2022/11/04 09:47:32;;;;;;;;;;;;;;;11.11;83.57;100677.25;7361452;19;19922;-56
2022/11/04 09:49:59;;;;;;;;;;;;;;;11.13;83.62;100684.00;7360576;19;20354;-58
2022/11/04 09:52:36;;;;;;;;;;;;;;;11.14;83.37;100663.75;7360099;19;19946;-59
2022/11/04 09:55:04;;;;;;;;;;;;;;;11.21;84.15;100680.56;7360683;19;20674;-58
2022/11/04 09:57:32;;;;;;;;;;;;;;;11.27;83.74;100679.94;7358538;19;19945;-55
2022/11/04 09:59:59;;;;;;;;;;;;;;;11.33;83.42;100681.91;7358671;19;19938;-58
2022/11/04 10:02:29;;;;;;;;;;;;;;;11.39;83.22;100683.91;7356588;19;20326;-59
2022/11/04 10:05:15;;;;;;;;;;;;;;;11.43;82.78;100684.38;7335333;19;21915;-58
2022/11/04 10:08:01;;;;;;;;;;;;;;;11.48;83.31;100690.81;7350089;19;19926;-55
2022/11/04 10:10:44;;;;;;;;;;;;;;;11.58;83.58;100691.50;7359209;19;20222;-59
2022/11/04 10:13:26;;;;;;;;;;;;;;;11.63;82.37;100698.13;7357479;19;19911;-59
2022/11/04 10:15:59;;;;;;;;;;;;;;;11.66;82.62;100697.78;7361126;19;20620;-57
2022/11/04 10:18:33;;;;;;;;;;;;;;;11.72;82.62;100712.94;7358757;19;20352;-59
2022/11/04 10:21:16;;;;;;;;;;;;;;;11.78;83.00;100717.59;7358899;19;19923;-57
2022/11/04 10:23:45;;;;;;;;;;;;;;;11.82;82.26;100726.84;7359992;19;19926;-57
2022/11/04 10:26:16;;;;;;;;;;;;;;;11.86;82.16;100728.16;7361450;19;19919;-58
2022/11/04 10:28:47;;;;;;;;;;;;;;;11.93;81.16;100729.16;7355739;19;19952;-56
2022/11/04 10:31:15;;;;;;;;;;;;;;;11.97;80.80;100731.28;7358855;19;19926;-58
2022/11/04 10:33:45;;;;;;;;;;;;;;;12.04;80.86;100738.56;7359873;19;20837;-61
2022/11/04 10:36:13;;;;;;;;;;;;;;;12.02;79.64;100745.78;7360032;19;19945;-59
2022/11/04 10:38:51;;;;;;;;;;;;;;;12.05;79.94;100761.28;7364452;19;19947;-57
2022/11/04 10:41:28;;;;;;;;;;;;;;;12.07;80.07;100748.75;7365805;19;19930;-59
2022/11/04 10:44:00;;;;;;;;;;;;;;;12.11;79.31;100753.53;7362060;19;20221;-59
2022/11/04 10:46:36;;;;;;;;;;;;;;;12.16;79.40;100761.78;7364838;19;19947;-55
2022/11/04 10:49:04;;;;;;;;;;;;;;;12.18;78.02;100775.66;7366029;19;19922;-58
2022/11/04 10:51:31;;;;;;;;;;;;;;;12.20;77.99;100778.94;7360638;19;20305;-56
2022/11/04 10:53:58;;;;;;;;;;;;;;;12.26;78.75;100782.72;7340337;19;19923;-58
2022/11/04 10:56:32;;;;;;;;;;;;;;;12.28;77.51;100781.59;7361686;19;19949;-60
2022/11/04 11:26:58;;;;;;;;;;;;;;;12.42;74.42;100809.94;7351831;19;19939;-58
2022/11/04 11:29:27;;;;;;;;;;;;;;;12.43;74.49;100811.59;7360420;19;19936;-58
2022/11/04 11:31:55;;;;;;;;;;;;;;;12.43;74.65;100805.50;7364370;19;19994;-58
2022/11/04 11:34:27;;;;;;;;;;;;;;;12.50;74.35;100810.91;7361948;19;19966;-55
2022/11/04 11:36:55;;;;;;;;;;;;;;;12.54;74.33;100812.25;7365648;19;20350;-57
2022/11/04 11:39:26;;;;;;;;;;;;;;;12.55;74.60;100819.16;7364425;19;19920;-59
2022/11/04 11:41:57;;;;;;;;;;;;;;;12.59;75.42;100809.94;7363687;19;19918;-58
2022/11/04 11:44:26;;;;;;;;;;;;;;;12.68;74.65;100817.69;7361162;19;19990;-59
2022/11/04 11:46:55;;;;;;;;;;;;;;;12.78;74.18;100822.78;7366534;19;20883;-57
2022/11/04 11:49:24;;;;;;;;;;;;;;;12.83;72.15;100829.22;7359629;19;19926;-58
2022/11/04 11:51:51;;;;;;;;;;;;;;;12.86;71.49;100841.25;7364387;19;19937;-57
2022/11/04 11:54:21;;;;;;;;;;;;;;;12.94;71.12;100838.59;7364355;19;19964;-57
2022/11/04 11:56:52;;;;;;;;;;;;;;;12.91;70.33;100833.63;7365562;19;20017;-59
2022/11/04 11:59:48;;;;;;;;;;;;;;;12.95;70.11;100850.81;7360514;19;19922;-57
2022/11/04 12:02:40;;;;;;;;;;;;;;;12.94;70.11;100849.16;7364542;19;19915;-57
2022/11/04 12:05:10;;;;;;;;;;;;;;;12.98;70.37;100853.13;7363075;19;19922;-57
2022/11/04 12:08:01;;;;;;;;;;;;;;;13.01;70.16;100844.03;7362468;19;20018;-57
2022/11/04 12:10:54;;;;;;;;;;;;;;;13.05;70.02;100832.97;7362921;19;19990;-58
2022/11/04 12:13:30;;;;;;;;;;;;;;;13.10;70.69;100830.66;7364585;19;20011;-59
2022/11/04 12:15:58;;;;;;;;;;;;;;;13.17;70.45;100829.00;7362551;19;19921;-58
2022/11/04 12:18:34;;;;;;;;;;;;;;;13.22;72.02;100823.19;7364732;19;19926;-59
2022/11/04 12:21:11;;;;;;;;;;;;;;;13.27;71.44;100824.34;7363401;19;19990;-59
2022/11/04 12:23:40;;;;;;;;;;;;;;;13.33;72.68;100824.66;7364276;19;19944;-59
2022/11/04 12:26:12;;;;;;;;;;;;;;;13.36;72.51;100833.06;7360622;19;20618;-58
2022/11/04 12:28:48;;;;;;;;;;;;;;;13.39;69.46;100837.19;7360572;19;19998;-59
2022/11/04 12:31:25;;;;;;;;;;;;;;;13.41;68.99;100833.38;7359858;19;19915;-57
2022/11/04 12:34:00;;;;;;;;;;;;;;;13.41;69.56;100835.22;7362813;19;20015;-56
2022/11/04 12:36:37;;;;;;;;;;;;;;;13.43;67.59;100835.84;7331279;19;20510;-57
2022/11/04 12:39:10;;;;;;;;;;;;;;;13.46;67.63;100830.25;7359541;19;20296;-58
2022/11/04 12:41:44;;;;;;;;;;;;;;;13.49;65.93;100838.63;7360212;19;19930;-58
2022/11/04 12:44:36;;;;;;;;;;;;;;;13.49;65.80;100849.22;7359114;19;19926;-55
2022/11/04 12:47:13;;;;;;;;;;;;;;;13.51;64.14;100843.78;7358695;19;19926;-57
2022/11/04 12:49:48;;;;;;;;;;;;;;;13.50;63.36;100848.22;7360424;19;19951;-58
2022/11/04 12:52:22;;;;;;;;;;;;;;;13.50;64.18;100853.50;7360919;19;20621;-59
2022/11/04 12:54:51;;;;;;;;;;;;;;;13.50;62.48;100882.59;7360727;19;19930;-56
2022/11/04 12:57:22;;;;;;;;;;;;;;;13.51;63.72;100867.56;7361024;19;19927;-57
2022/11/04 12:59:59;;;;;;;;;;;;;;;13.52;62.88;100863.91;7358764;19;19926;-54
2022/11/04 13:02:33;;;;;;;;;;;;;;;13.53;61.69;100869.03;7362825;19;19926;-58
2022/11/04 13:05:10;;;;;;;;;;;;;;;13.53;62.65;100871.66;7360360;19;19919;-58
2022/11/04 13:07:41;;;;;;;;;;;;;;;13.58;60.77;100890.47;7360063;19;19934;-58
2022/11/04 13:10:18;;;;;;;;;;;;;;;13.60;62.26;100874.47;7358611;19;19934;-55
2022/11/04 13:12:47;;;;;;;;;;;;;;;13.61;61.25;100882.19;7357563;19;19954;-57
2022/11/04 13:15:18;;;;;;;;;;;;;;;13.63;61.25;100895.25;7358142;19;19922;-58
2022/11/04 13:17:49;;;;;;;;;;;;;;;13.64;61.50;100892.44;7362358;19;19922;-57
2022/11/04 13:20:25;;;;;;;;;;;;;;;13.64;63.14;100897.75;7359696;19;19987;-59
2022/11/04 13:22:52;;;;;;;;;;;;;;;13.66;62.21;100892.28;7359946;19;19914;-57
2022/11/04 13:25:29;;;;;;;;;;;;;;;13.69;61.60;100892.75;7358491;19;19929;-56
2022/11/04 13:27:57;;;;;;;;;;;;;;;13.70;61.93;100898.88;7360125;19;20730;-56
2022/11/04 13:30:34;;;;;;;;;;;;;;;13.72;62.79;100886.28;7354309;19;19951;-55
2022/11/04 13:33:09;;;;;;;;;;;;;;;13.75;62.02;100908.94;7360726;19;19994;-57
2022/11/04 13:35:51;;;;;;;;;;;;;;;13.75;62.15;100915.06;7362827;19;19922;-59
2022/11/04 13:38:22;;;;;;;;;;;;;;;13.78;62.98;100905.94;7362213;19;20381;-56
2022/11/04 13:40:56;;;;;;;;;;;;;;;13.85;63.11;100920.13;7360679;19;20329;-58
2022/11/04 13:43:40;;;;;;;;;;;;;;;13.88;63.94;100912.69;7361057;19;19929;-59
2022/11/04 13:46:07;;;;;;;;;;;;;;;13.91;64.04;100908.88;7360533;19;19959;-55
2022/11/04 13:48:37;;;;;;;;;;;;;;;13.94;63.67;100895.28;7361644;19;19914;-56
2022/11/04 13:51:06;;;;;;;;;;;;;;;13.96;64.11;100901.25;7357934;19;19953;-56
2022/11/04 13:53:42;;;;;;;;;;;;;;;13.95;63.54;100903.06;7329950;19;19999;-56
2022/11/04 13:56:24;;;;;;;;;;;;;;;13.94;62.78;100897.94;7356002;19;20718;-57
2022/11/04 13:59:02;;;;;;;;;;;;;;;13.88;61.07;100902.09;7356357;19;19961;-54
2022/11/04 14:01:31;;;;;;;;;;;;;;;13.86;60.46;100917.34;7360324;19;19926;-58
2022/11/04 14:04:18;;;;;;;;;;;;;;;13.80;60.75;100917.19;7361029;19;19959;-58